Latest Weather Observations for Temora

IDN60801

Issued at 6:02 pm EDT Wednesday 29 March 2017 (issued every 30 minutes, with the page automatically refreshed every 10 minutes)

About weather observations | Map of weather stations | Latest weather observations for NSW | Other Formats
Station Details ID: 073151 Name: TEMORA AIRPORT Lat: -34.43 Lon: 147.51 Height: 280.5 m
Data from the previous 72 hours. | See also: Recent months at Temora
Date/Time
EDT
Temp
°C
App
Temp
°C
Dew
Point
°C
Rel
Hum
%
Delta-T
°C
Wind Press
QNH
hPa
Press
MSL
hPa
Rain since
9am
mm
Dir  Spd
km/h
Gust
km/h
Spd
kts
Gust
kts
29/06:00pm 29.3 25.9 6.0 23 12.5 NNW 13 15 7 8 1008.4 1007.3 -
29/05:30pm 29.7 25.9 5.7 22 12.8 NW 15 24 8 13 1008.5 1007.4 0.0
29/05:00pm 29.9 26.0 5.2 21 13.1 WNW 15 22 8 12 1008.6 1007.5 0.0
29/04:30pm 29.8 25.7 4.4 20 13.2 W 15 22 8 12 1008.8 1007.7 0.0
29/04:00pm 29.9 25.5 4.5 20 13.3 WNW 17 28 9 15 1009.1 1008.0 0.0
29/03:30pm 29.2 24.9 5.3 22 12.6 WNW 17 24 9 13 1009.6 1008.5 0.0
29/03:00pm 29.2 25.7 5.3 22 12.6 NW 13 20 7 11 1009.9 1008.8 0.0
29/02:30pm 28.5 25.1 4.1 21 12.5 W 11 20 6 11 1010.3 1009.2 0.0
29/02:00pm 27.5 25.1 4.5 23 11.9 NW 6 15 3 8 1010.9 1009.9 0.0
29/01:30pm 27.5 23.5 5.1 24 11.7 W 15 22 8 12 1011.7 1010.6 0.0
29/01:00pm 27.5 23.9 5.1 24 11.7 W 13 20 7 11 1012.1 1011.0 0.0
29/12:30pm 26.7 22.7 5.1 25 11.2 WNW 15 20 8 11 1012.4 1011.3 0.0
29/12:00pm 25.3 22.1 5.0 27 10.4 NW 11 20 6 11 1012.8 1011.7 0.0
29/11:30am 24.6 22.7 6.8 32 9.4 N 6 13 3 7 1013.0 1011.9 0.0
29/11:00am 22.7 20.8 6.9 36 8.2 NE 6 11 3 6 1013.2 1012.1 0.0
29/10:30am 21.0 19.1 7.6 42 7.0 NNE 7 11 4 6 1013.5 1012.4 0.0
29/10:00am 19.1 18.2 7.8 48 5.9 NE 2 7 1 4 1013.6 1012.6 0.0
29/09:30am 17.5 15.8 8.4 55 4.7 NE 7 11 4 6 1013.5 1012.4 0.0
29/09:00am 15.0 14.5 9.4 69 2.9 SSE 2 7 1 4 1013.3 1012.2 0.0
29/08:30am 11.0 11.0 9.8 92 0.6 CALM 0 7 0 4 1013.2 1012.1 0.0
29/08:00am 8.9 7.1 8.1 95 0.4 S 7 9 4 5 1012.8 1011.7 0.0
29/07:30am 7.2 5.6 6.3 94 0.4 S 4 7 2 4 1012.7 1011.6 0.0
29/07:00am 7.5 5.4 6.6 94 0.4 S 7 9 4 5 1012.5 1011.4 0.0
29/06:30am 7.7 5.8 6.6 93 0.5 S 6 7 3 4 1012.3 1011.2 0.0
29/06:00am 8.3 7.6 7.1 92 0.6 CALM 0 0 0 0 1012.2 1011.1 0.0
29/05:30am 8.0 7.3 6.8 92 0.6 CALM 0 0 0 0 1012.1 1011.0 0.0
29/05:00am 8.4 7.3 6.9 90 0.7 S 2 6 1 3 1012.1 1011.0 0.0
29/04:30am 8.8 6.5 7.4 91 0.7 S 9 9 5 5 1012.2 1011.1 0.0
29/04:00am 8.7 8.1 7.5 92 0.6 CALM 0 0 0 0 1012.4 1011.3 0.0
29/03:30am 8.9 8.3 7.4 90 0.7 CALM 0 0 0 0 1012.5 1011.4 0.0
29/03:00am 9.1 8.5 7.5 90 0.8 CALM 0 0 0 0 1013.0 1011.9 0.0
29/02:30am 8.7 6.9 7.0 89 0.8 SSW 6 7 3 4 1013.2 1012.1 0.0
29/02:00am 9.3 8.3 7.4 88 0.9 S 2 7 1 4 1013.5 1012.4 0.0
29/01:30am 9.7 9.2 7.8 88 0.9 CALM 0 0 0 0 1013.6 1012.6 0.0
29/01:00am 10.3 8.7 8.1 86 1.1 S 6 9 3 5 1013.8 1012.8 0.0
29/12:30am 10.2 8.4 7.3 82 1.4 SSW 6 7 3 4 1014.2 1013.2 0.0
29/12:00am 11.6 10.1 8.6 82 1.5 SSE 6 7 3 4 1014.3 1013.3 0.0
 
Date/Time
EDT
Temp
°C
App
Temp
°C
Dew
Point
°C
Rel
Hum
%
Delta-T
°C
Wind Press
QNH
hPa
Press
MSL
hPa
Rain since
9am
mm
Dir  Spd
km/h
Gust
km/h
Spd
kts
Gust
kts
28/11:30pm 11.4 10.4 7.5 77 1.9 S 2 7 1 4 1014.5 1013.5 0.0
28/11:00pm 11.1 8.2 8.1 82 1.5 WSW 13 17 7 9 1014.7 1013.7 0.0
28/10:30pm 11.7 11.1 7.6 76 2.0 CALM 0 0 0 0 1014.5 1013.5 0.0
28/10:00pm 12.7 12.2 7.8 72 2.4 CALM 0 0 0 0 1014.4 1013.4 0.0
28/09:30pm 13.9 13.5 8.3 69 2.8 CALM 0 0 0 0 1014.3 1013.3 0.0
28/09:00pm 14.6 14.0 7.2 61 3.7 CALM 0 6 0 3 1014.1 1013.1 0.0
28/08:30pm 16.2 15.6 7.4 56 4.4 CALM 0 0 0 0 1013.6 1012.6 0.0
28/08:00pm 18.1 17.7 8.1 52 5.2 CALM 0 0 0 0 1013.4 1012.3 0.0
28/07:30pm 20.1 18.1 6.1 40 7.1 WSW 6 9 3 5 1013.1 1012.0 0.0
28/07:00pm 22.5 19.6 4.5 31 9.0 WSW 9 11 5 6 1013.2 1012.1 0.0
28/06:30pm 25.0 21.9 3.6 25 10.7 WSW 9 13 5 7 1013.1 1012.0 0.0
28/06:00pm 25.9 22.5 3.8 24 11.1 SW 11 17 6 9 1013.0 1011.9 0.0
28/05:30pm 26.5 22.9 4.9 25 11.1 SW 13 17 7 9 1013.0 1011.9 0.0
28/05:00pm 26.3 23.3 5.8 27 10.7 SSW 11 15 6 8 1012.9 1011.8 0.0
28/04:30pm 26.3 22.9 5.8 27 10.7 SW 13 20 7 11 1013.0 1011.9 0.0
28/04:00pm 26.2 22.3 5.2 26 10.9 SW 15 20 8 11 1013.2 1012.1 0.0
28/03:30pm 25.8 21.7 4.3 25 10.9 WSW 15 22 8 12 1013.2 1012.1 0.0
28/03:00pm 25.6 22.3 4.7 26 10.7 SSW 11 20 6 11 1013.4 1012.3 0.0
28/02:30pm 25.2 21.9 6.4 30 9.9 SW 13 24 7 13 1013.7 1012.7 0.0
28/02:00pm 25.1 20.9 5.8 29 10.0 SW 17 22 9 12 1013.9 1012.9 0.0
28/01:30pm 24.3 20.1 5.6 30 9.6 SSW 17 24 9 13 1014.3 1013.3 0.0
28/01:00pm 23.7 19.8 6.9 34 8.8 SSW 17 26 9 14 1014.7 1013.7 0.0
28/12:30pm 22.6 18.6 6.8 36 8.2 SSW 17 28 9 15 1015.2 1014.1 0.0
28/12:00pm 21.8 17.1 6.1 36 8.0 SSW 20 28 11 15 1015.7 1014.6 0.0
28/11:30am 20.7 16.5 8.4 45 6.5 SSW 20 28 11 15 1015.9 1014.8 0.0
28/11:00am 19.8 15.6 8.2 47 6.1 SSW 20 32 11 17 1015.9 1014.8 0.0
28/10:30am 19.0 14.2 7.4 47 6.0 SSW 22 32 12 17 1015.9 1014.8 0.0
28/10:00am 18.1 14.0 7.8 51 5.3 SSW 19 28 10 15 1015.6 1014.5 0.0
28/09:30am 16.4 14.4 10.3 67 3.3 SSW 11 15 6 8 1015.6 1014.5 0.0
28/09:00am 14.4 12.3 9.6 73 2.5 SSW 11 17 6 9 1015.4 1014.3 1.4
28/08:30am 12.6 12.4 9.1 79 1.8 CALM 0 2 0 1 1015.1 1014.0 1.4
28/08:00am 11.3 10.1 9.4 88 1.0 NE 6 9 3 5 1014.7 1013.7 1.4
28/07:30am 10.0 9.6 8.1 88 0.9 CALM 0 0 0 0 1014.2 1013.2 1.4
28/07:00am 9.7 8.6 7.0 83 1.3 SW 2 7 1 4 1013.8 1012.8 1.4
28/06:30am 11.1 9.3 8.1 82 1.5 SSW 7 9 4 5 1013.6 1012.6 1.4
28/06:00am 11.2 9.5 8.2 82 1.5 SSW 7 11 4 6 1013.4 1012.3 1.4
28/05:30am 12.0 11.3 8.7 80 1.7 SSW 2 6 1 3 1013.3 1012.2 1.4
28/05:00am 12.9 10.5 8.6 75 2.2 SSW 11 15 6 8 1013.2 1012.1 1.4
28/04:30am 13.7 11.0 9.0 73 2.4 SSW 13 17 7 9 1013.3 1012.2 1.4
28/04:00am 14.3 11.6 8.9 70 2.8 SSW 13 17 7 9 1013.3 1012.2 1.4
28/03:30am 14.9 12.2 9.1 68 3.0 SSW 13 22 7 12 1013.4 1012.3 1.4
28/03:00am 15.9 13.2 10.4 70 2.9 SW 15 24 8 13 1013.5 1012.4 1.4
28/02:30am 16.6 14.3 11.7 73 2.7 SW 15 26 8 14 1013.6 1012.6 1.4
28/02:00am 17.4 15.7 13.5 78 2.2 SW 15 24 8 13 1013.6 1012.6 1.4
28/01:30am 18.0 16.3 13.7 76 2.5 SW 15 26 8 14 1013.7 1012.7 1.4
28/01:00am 18.5 17.0 14.2 76 2.5 WSW 15 24 8 13 1013.5 1012.4 1.4
28/12:30am 18.9 17.7 15.0 78 2.3 WSW 15 20 8 11 1013.5 1012.4 1.4
28/12:00am 19.3 19.2 16.0 81 2.0 WSW 11 17 6 9 1013.3 1012.2 1.4
 
Date/Time
EDT
Temp
°C
App
Temp
°C
Dew
Point
°C
Rel
Hum
%
Delta-T
°C
Wind Press
QNH
hPa
Press
MSL
hPa
Rain since
9am
mm
Dir  Spd
km/h
Gust
km/h
Spd
kts
Gust
kts
27/11:30pm 20.0 20.0 15.2 74 2.9 S 9 13 5 7 1013.4 1012.3 1.4
27/11:00pm 21.5 21.1 15.3 68 3.7 SW 11 17 6 9 1012.9 1011.8 0.6
27/10:30pm 22.2 22.0 15.8 67 3.9 SW 11 15 6 8 1012.7 1011.6 0.6
27/10:00pm 22.8 23.1 15.9 65 4.2 SW 9 11 5 6 1012.8 1011.7 0.6
27/09:30pm 23.6 23.7 15.4 60 5.0 SW 9 13 5 7 1012.6 1011.5 0.6
27/09:00pm 23.8 23.4 16.3 63 4.6 WSW 13 17 7 9 1012.5 1011.4 0.6
27/08:30pm 23.9 25.0 15.7 60 5.0 W 4 7 2 4 1012.2 1011.1 0.6
27/08:00pm 24.9 23.7 16.1 58 5.4 SSW 17 24 9 13 1011.6 1010.5 0.6
27/07:30pm 25.2 24.0 18.4 66 4.4 WSW 22 32 12 17 1011.4 1010.3 0.6
27/07:00pm 24.9 25.2 20.8 78 2.7 WSW 20 33 11 18 1010.4 1009.4 0.6
27/06:30pm 28.1 26.2 19.3 58 5.8 NNW 28 35 15 19 1009.2 1008.1 0.0
27/06:00pm 31.3 28.6 17.6 44 8.9 N 28 39 15 21 1007.5 1006.4 0.0
27/05:30pm 32.9 29.8 17.5 39 10.0 N 30 39 16 21 1008.1 1007.0 0.0
27/05:00pm 33.6 30.8 18.1 39 10.2 N 30 39 16 21 1008.7 1007.6 0.0
27/04:30pm 33.7 31.5 17.8 38 10.4 N 26 35 14 19 1009.1 1008.0 0.0
27/04:00pm 34.1 31.7 18.2 39 10.4 N 28 41 15 22 1009.5 1008.4 0.0
27/03:30pm 34.1 32.2 18.6 40 10.2 N 26 39 14 21 1009.8 1008.7 0.0
27/03:00pm 33.6 31.6 17.3 37 10.6 N 24 33 13 18 1010.2 1009.1 0.0
27/02:30pm 32.9 30.2 17.5 39 10.0 N 28 39 15 21 1010.7 1009.7 0.0
27/02:00pm 33.2 30.6 17.8 40 10.0 N 28 37 15 20 1011.4 1010.3 0.0
27/01:30pm 32.4 30.4 17.5 41 9.6 N 24 37 13 20 1012.1 1011.0 0.0
27/01:00pm 31.6 28.9 17.5 43 9.1 N 28 39 15 21 1012.5 1011.4 0.0
27/12:30pm 31.1 28.3 18.1 46 8.4 N 30 39 16 21 1013.1 1012.0 0.0
27/12:00pm 29.7 28.0 18.2 50 7.4 N 24 35 13 19 1013.5 1012.4 0.0
27/11:30am 29.0 26.4 17.8 50 7.2 N 28 35 15 19 1014.0 1013.0 0.0
27/11:00am 27.3 24.1 17.2 54 6.4 N 30 37 16 20 1014.2 1013.2 0.0
27/10:30am 26.4 23.1 16.9 56 6.0 N 30 37 16 20 1014.5 1013.5 0.0
27/10:00am 25.9 23.7 17.0 58 5.6 NNE 24 30 13 16 1014.7 1013.7 0.0
27/09:30am 24.6 22.7 16.6 61 5.0 NNE 22 33 12 18 1014.9 1013.8 0.0
27/09:00am 22.5 21.4 16.3 68 3.8 NE 17 20 9 11 1015.1 1014.0 0.0
27/08:30am 21.5 21.1 16.2 72 3.2 NE 13 17 7 9 1015.0 1013.9 0.0
27/08:00am 20.5 20.5 16.3 77 2.6 ENE 11 15 6 8 1014.7 1013.7 0.0
27/07:30am 19.8 19.4 16.1 79 2.2 ENE 13 17 7 9 1014.5 1013.5 0.0
27/07:00am 19.6 19.9 15.9 79 2.2 ENE 9 13 5 7 1014.6 1013.6 0.0
27/06:30am 19.2 19.8 15.9 81 2.0 ENE 7 9 4 5 1014.4 1013.4 0.0
27/06:00am 18.6 19.5 15.1 80 2.1 NE 4 9 2 5 1014.3 1013.3 0.0
27/05:30am 19.7 19.8 14.5 72 3.1 NE 7 9 4 5 1014.1 1013.1 0.0
27/05:00am 20.8 20.4 15.1 70 3.4 NE 11 17 6 9 1014.0 1013.0 0.0
27/04:30am 21.0 20.5 14.9 68 3.6 ENE 11 15 6 8 1013.9 1012.9 0.0
27/04:00am 20.9 20.4 14.8 68 3.6 ENE 11 13 6 7 1014.1 1013.1 0.0
27/03:30am 21.2 20.1 14.4 65 4.0 ENE 13 19 7 10 1014.3 1013.3 0.0
27/03:00am 21.7 19.7 13.9 61 4.6 ENE 17 24 9 13 1014.3 1013.3 0.0
27/02:30am 22.2 20.8 13.5 57 5.1 ENE 13 17 7 9 1014.4 1013.4 0.0
27/02:00am 22.2 21.8 14.1 60 4.8 ENE 9 13 5 7 1014.6 1013.6 0.0
27/01:30am 21.0 21.5 15.1 69 3.5 NE 6 7 3 4 1014.9 1013.8 0.0
27/01:00am 19.8 21.4 14.8 73 3.0 CALM 0 0 0 0 1015.0 1013.9 0.0
27/12:30am 18.9 20.8 15.8 82 1.9 CALM 0 0 0 0 1015.3 1014.2 0.0
27/12:00am 19.3 20.5 14.8 75 2.7 E 2 7 1 4 1015.1 1014.0 0.0
 
Date/Time
EDT
Temp
°C
App
Temp
°C
Dew
Point
°C
Rel
Hum
%
Delta-T
°C
Wind Press
QNH
hPa
Press
MSL
hPa
Rain since
9am
mm
Dir  Spd
km/h
Gust
km/h
Spd
kts
Gust
kts
26/11:30pm 20.0 21.7 15.2 74 2.9 CALM 0 0 0 0 1015.2 1014.1 0.0
26/11:00pm 21.2 21.6 14.8 67 3.8 E 6 7 3 4 1015.3 1014.2 0.0
26/10:30pm 20.8 22.1 14.0 65 4.0 CALM 0 0 0 0 1015.4 1014.3 0.0
26/10:00pm 24.7 24.1 13.6 50 6.6 E 9 11 5 6 1015.4 1014.3 0.0
26/09:30pm 24.7 24.2 13.9 51 6.4 ENE 9 11 5 6 1015.1 1014.0 0.0
26/09:00pm 26.4 25.0 13.5 45 7.7 E 13 15 7 8 1014.6 1013.6 0.0
26/08:30pm 26.8 26.2 13.5 44 7.9 E 9 15 5 8 1014.6 1013.6 0.0
26/08:00pm 26.7 25.8 14.8 48 7.2 E 13 15 7 8 1014.1 1013.1 0.0
26/07:30pm 26.1 28.5 16.9 57 5.8 CALM 0 0 0 0 1013.8 1012.8 0.0
26/07:00pm 27.8 29.4 14.8 45 8.0 CALM 0 6 0 3 1013.5 1012.4 0.0
26/06:30pm 28.7 28.2 12.2 36 9.7 W 6 9 3 5 1013.5 1012.4 0.0

Other Formats:

Comma delimited format used in spreadsheet applications
http://www.bom.gov.au/fwo/IDN60801/IDN60801.95722.axf

JavaScript Object Notation format (JSON) in row-major order
http://www.bom.gov.au/fwo/IDN60801/IDN60801.95722.json